createdAt,value
2022-12-13T00:02:03.999Z,6.60
2022-12-13T00:04:33.064Z,4.70
2022-12-13T00:07:01.991Z,3.90
2022-12-13T00:09:30.768Z,5.60
2022-12-13T00:12:00.060Z,3.50
2022-12-13T00:14:31.855Z,7.20
2022-12-13T00:17:02.594Z,5.50
2022-12-13T00:19:31.433Z,4.70
2022-12-13T00:22:00.026Z,7.80
2022-12-13T00:24:28.610Z,6.10
2022-12-13T00:26:57.089Z,4.30
2022-12-13T00:29:26.080Z,3.80
2022-12-13T00:32:02.202Z,5.10
2022-12-13T00:34:30.944Z,4.20
2022-12-13T00:36:59.601Z,5.00
2022-12-13T00:39:29.150Z,5.60
2022-12-13T00:41:58.130Z,6.30
2022-12-13T00:44:26.818Z,2.70
2022-12-13T00:46:55.397Z,3.80
2022-12-13T00:49:24.806Z,4.70
2022-12-13T00:51:53.419Z,5.90
2022-12-13T00:54:21.883Z,5.20
2022-12-13T00:56:51.693Z,4.50
2022-12-13T00:59:23.493Z,3.90
2022-12-13T01:01:55.482Z,3.30
2022-12-13T01:04:24.423Z,5.50
2022-12-13T01:06:55.375Z,5.40
2022-12-13T01:09:31.350Z,5.60
2022-12-13T01:12:05.746Z,4.00
2022-12-13T01:14:39.141Z,3.80
2022-12-13T01:17:08.127Z,6.20
2022-12-13T01:19:36.819Z,5.70
2022-12-13T01:22:07.462Z,4.80
2022-12-13T01:24:36.361Z,2.70
2022-12-13T01:27:04.937Z,6.00
2022-12-13T01:29:33.838Z,7.40
2022-12-13T01:32:02.218Z,3.90
2022-12-13T01:34:31.011Z,4.40
2022-12-13T01:36:59.495Z,4.70
2022-12-13T01:39:27.861Z,3.70
2022-12-13T01:41:59.824Z,4.80
2022-12-13T01:44:56.588Z,6.00
2022-12-13T01:47:28.749Z,4.90
2022-12-13T01:50:00.158Z,6.50
2022-12-13T01:52:32.485Z,4.20
2022-12-13T01:55:07.248Z,6.10
2022-12-13T01:57:40.781Z,5.00
2022-12-13T02:00:12.770Z,2.50
2022-12-13T02:02:41.576Z,5.00
2022-12-13T02:05:14.441Z,6.00
2022-12-13T02:07:44.674Z,4.70
2022-12-13T02:10:13.577Z,3.90
2022-12-13T02:12:44.210Z,2.90
2022-12-13T02:15:15.887Z,4.10
2022-12-13T02:17:56.751Z,3.90
2022-12-13T02:20:51.535Z,4.60
2022-12-13T02:23:38.122Z,5.70
2022-12-13T02:26:15.140Z,6.10
2022-12-13T02:29:06.664Z,4.10
2022-12-13T02:31:40.960Z,5.30
2022-12-13T02:34:28.093Z,3.10
2022-12-13T02:37:06.730Z,4.10
2022-12-13T02:39:53.444Z,3.00
2022-12-13T02:42:31.913Z,6.50
2022-12-13T02:45:07.495Z,9.00
2022-12-13T02:47:42.565Z,5.90
2022-12-13T02:50:14.889Z,3.80
2022-12-13T02:52:46.847Z,4.20
2022-12-13T02:55:17.368Z,4.80
2022-12-13T02:57:46.303Z,4.10
2022-12-13T03:00:19.401Z,2.80
2022-12-13T03:03:12.655Z,5.90
2022-12-13T03:06:05.510Z,4.50
2022-12-13T03:09:10.665Z,4.90
2022-12-13T03:12:48.067Z,2.30
2022-12-13T03:15:28.328Z,2.60
2022-12-13T03:18:05.811Z,6.10
2022-12-13T03:20:34.306Z,2.40
2022-12-13T03:23:02.470Z,3.30
2022-12-13T03:25:32.838Z,3.40
2022-12-13T03:28:02.760Z,4.50
2022-12-13T03:30:32.855Z,3.60
2022-12-13T03:33:01.691Z,3.10
2022-12-13T03:35:35.070Z,4.00
2022-12-13T03:38:22.244Z,3.00
2022-12-13T03:40:59.126Z,4.10
2022-12-13T03:43:28.540Z,6.40
2022-12-13T03:45:57.484Z,5.30
2022-12-13T03:48:26.153Z,6.70
2022-12-13T03:50:55.027Z,9.30
2022-12-13T03:53:32.633Z,5.40
2022-12-13T03:56:04.793Z,5.80
2022-12-13T03:58:37.661Z,4.30
2022-12-13T04:01:12.939Z,4.80
2022-12-13T04:03:44.345Z,9.60
2022-12-13T04:06:21.902Z,9.70
2022-12-13T04:08:52.524Z,9.30
2022-12-13T04:11:42.601Z,9.90
2022-12-13T04:14:22.418Z,8.10
2022-12-13T04:16:52.617Z,10.40
2022-12-13T04:19:22.961Z,10.60
2022-12-13T04:21:54.593Z,9.70
2022-12-13T04:24:31.855Z,8.20
2022-12-13T04:27:01.573Z,10.20
2022-12-13T04:29:34.501Z,10.20
2022-12-13T04:32:26.676Z,10.50
2022-12-13T04:35:01.029Z,12.00
2022-12-13T04:37:30.629Z,7.80
2022-12-13T04:40:00.710Z,11.10
2022-12-13T04:42:29.679Z,7.50
2022-12-13T04:44:58.010Z,11.20
2022-12-13T04:47:26.592Z,8.40
2022-12-13T04:49:55.377Z,7.10
2022-12-13T04:52:23.771Z,11.50
2022-12-13T04:54:56.087Z,9.40
2022-12-13T04:57:24.980Z,15.60
2022-12-13T04:59:53.417Z,8.10
2022-12-13T05:02:23.358Z,9.80
2022-12-13T05:04:54.027Z,7.90
2022-12-13T05:07:28.303Z,10.80
2022-12-13T05:09:56.784Z,8.30
2022-12-13T05:12:25.253Z,8.30
2022-12-13T05:14:54.260Z,4.70
2022-12-13T05:17:23.184Z,14.10
2022-12-13T05:19:51.725Z,15.40
2022-12-13T05:22:21.174Z,10.10
2022-12-13T05:24:49.724Z,11.10
2022-12-13T05:27:25.048Z,11.10
2022-12-13T05:30:03.737Z,6.90
2022-12-13T05:32:43.107Z,7.80
2022-12-13T05:35:22.496Z,5.70
2022-12-13T05:37:53.697Z,6.70
2022-12-13T05:40:24.459Z,6.70
2022-12-13T05:43:01.565Z,3.70
2022-12-13T05:45:31.910Z,3.00
2022-12-13T05:48:01.681Z,5.60
2022-12-13T05:50:30.211Z,6.90
2022-12-13T05:52:58.657Z,7.70
2022-12-13T05:55:27.026Z,3.80
2022-12-13T05:57:55.525Z,5.30
2022-12-13T06:00:31.389Z,4.60
2022-12-13T06:03:01.486Z,6.10
2022-12-13T06:05:31.041Z,10.30
2022-12-13T06:07:59.613Z,11.20
2022-12-13T06:10:34.245Z,8.90
2022-12-13T06:13:21.428Z,7.50
2022-12-13T06:16:01.524Z,6.60
2022-12-13T06:18:32.956Z,10.50
2022-12-13T06:21:06.237Z,9.50
2022-12-13T06:23:35.440Z,14.00
2022-12-13T06:26:05.465Z,13.70
2022-12-13T06:28:33.961Z,11.40
2022-12-13T06:31:05.198Z,14.20
2022-12-13T06:33:38.299Z,15.10
2022-12-13T06:36:07.179Z,12.20
2022-12-13T06:38:35.488Z,11.50
2022-12-13T06:41:17.115Z,14.60
2022-12-13T06:43:47.281Z,8.40
2022-12-13T06:46:15.944Z,11.20
2022-12-13T06:48:44.651Z,9.40
2022-12-13T06:51:12.939Z,15.30
2022-12-13T06:53:51.011Z,17.20
2022-12-13T06:56:19.213Z,11.20
2022-12-13T06:58:47.814Z,7.40
2022-12-13T07:01:24.202Z,13.30
2022-12-13T07:03:56.761Z,13.10
2022-12-13T07:06:26.781Z,12.80
2022-12-13T07:08:58.271Z,12.00
2022-12-13T07:11:31.942Z,7.50
2022-12-13T07:14:02.050Z,11.90
2022-12-13T07:16:30.858Z,19.30
2022-12-13T07:19:01.628Z,11.90
2022-12-13T07:21:31.298Z,13.20
2022-12-13T07:23:59.522Z,15.90
2022-12-13T07:26:27.958Z,15.00
2022-12-13T07:28:57.157Z,16.10
2022-12-13T07:31:29.529Z,14.70
2022-12-13T07:33:58.536Z,14.20
2022-12-13T07:36:27.024Z,6.70
2022-12-13T07:38:57.770Z,13.10
2022-12-13T07:41:27.275Z,10.40
2022-12-13T07:43:56.292Z,11.70
2022-12-13T07:46:33.068Z,11.70
2022-12-13T07:49:03.364Z,11.80
2022-12-13T07:51:35.176Z,10.50
2022-12-13T07:54:06.250Z,11.00
2022-12-13T07:56:37.822Z,10.20
2022-12-13T07:59:06.535Z,9.50
2022-12-13T08:01:35.237Z,10.50
2022-12-13T08:04:05.261Z,11.00
2022-12-13T08:06:38.329Z,6.90
2022-12-13T08:09:07.134Z,10.40
2022-12-13T08:11:37.948Z,9.50
2022-12-13T08:14:07.450Z,7.30
2022-12-13T08:16:37.249Z,4.60
2022-12-13T08:19:06.281Z,9.80
2022-12-13T08:21:53.913Z,7.40
2022-12-13T08:24:26.357Z,9.40
2022-12-13T08:27:01.530Z,6.30
2022-12-13T08:29:36.252Z,4.70
2022-12-13T08:32:07.793Z,9.90
2022-12-13T08:34:36.897Z,5.20
2022-12-13T08:37:05.712Z,5.90
2022-12-13T08:39:36.806Z,6.10
2022-12-13T08:42:19.462Z,3.90
2022-12-13T08:44:51.003Z,7.40
2022-12-13T08:47:26.862Z,10.20
2022-12-13T08:50:02.892Z,7.90
2022-12-13T08:52:39.577Z,6.70
2022-12-13T08:55:12.084Z,5.30
2022-12-13T08:57:42.306Z,4.90
2022-12-13T09:00:19.194Z,7.20
2022-12-13T09:02:47.818Z,6.90
2022-12-13T09:05:33.129Z,4.20
2022-12-13T09:08:23.476Z,5.00
2022-12-13T09:11:00.880Z,4.80
2022-12-13T09:13:33.056Z,4.20
2022-12-13T09:16:14.108Z,9.30
2022-12-13T09:18:55.147Z,7.80
2022-12-13T09:21:31.498Z,9.50
2022-12-13T09:24:02.280Z,4.20
2022-12-13T09:26:37.860Z,7.60
2022-12-13T09:29:10.942Z,7.20
2022-12-13T09:31:41.135Z,5.00
2022-12-13T09:34:11.660Z,4.40
2022-12-13T09:36:40.663Z,7.80
2022-12-13T09:39:12.433Z,6.30
2022-12-13T09:41:50.849Z,4.50
2022-12-13T09:44:42.440Z,3.20
2022-12-13T09:47:38.652Z,3.40
2022-12-13T09:50:26.548Z,5.70
2022-12-13T09:52:59.851Z,5.80
2022-12-13T09:55:32.766Z,7.20
2022-12-13T09:58:11.461Z,7.20
2022-12-13T10:00:41.409Z,7.10
2022-12-13T10:03:15.085Z,6.90
2022-12-13T10:05:51.962Z,5.30
2022-12-13T10:08:35.916Z,6.30
2022-12-13T10:11:05.016Z,4.00
2022-12-13T10:13:36.976Z,5.00
2022-12-13T10:16:23.434Z,4.50
2022-12-13T10:18:52.990Z,4.10
2022-12-13T10:21:34.378Z,3.00
2022-12-13T10:24:36.335Z,3.70
2022-12-13T10:27:14.685Z,4.70
2022-12-13T10:30:08.240Z,4.70
2022-12-13T10:32:50.426Z,5.60
2022-12-13T10:35:24.655Z,6.00
2022-12-13T10:37:54.567Z,7.10
2022-12-13T10:40:37.903Z,8.60
2022-12-13T10:43:14.175Z,4.50
2022-12-13T10:45:57.037Z,7.20
2022-12-13T10:48:42.233Z,4.30
2022-12-13T10:51:14.914Z,5.00
2022-12-13T10:53:56.740Z,3.70
2022-12-13T10:56:45.625Z,5.50
2022-12-13T10:59:34.060Z,5.60
2022-12-13T11:02:32.519Z,4.40
2022-12-13T11:05:28.584Z,6.30
2022-12-13T11:08:12.922Z,7.00
2022-12-13T11:10:42.033Z,4.80
2022-12-13T11:13:25.483Z,4.50
2022-12-13T11:15:57.033Z,9.70
2022-12-13T11:18:30.412Z,3.80
2022-12-13T11:21:04.142Z,5.80
2022-12-13T11:23:38.238Z,3.80
2022-12-13T11:26:16.362Z,6.70
2022-12-13T11:28:56.195Z,6.00
2022-12-13T11:31:40.818Z,5.20
2022-12-13T11:34:21.425Z,7.10
2022-12-13T11:37:10.406Z,5.70
2022-12-13T11:39:47.556Z,3.20
2022-12-13T11:42:27.645Z,4.40
2022-12-13T11:45:28.893Z,3.70
2022-12-13T11:48:23.680Z,4.20
2022-12-13T11:50:56.784Z,4.10
2022-12-13T11:53:34.508Z,4.80
2022-12-13T11:56:27.643Z,4.20
2022-12-13T11:59:26.544Z,4.20
2022-12-13T12:02:35.629Z,6.00
2022-12-13T12:05:28.444Z,5.00
2022-12-13T12:08:32.311Z,3.10
2022-12-13T12:11:09.548Z,5.70
2022-12-13T12:13:55.848Z,5.40
2022-12-13T12:16:41.216Z,4.90
2022-12-13T12:19:15.362Z,3.40
2022-12-13T12:22:13.228Z,5.70
2022-12-13T12:24:53.791Z,5.40
2022-12-13T12:27:48.378Z,4.20
2022-12-13T12:30:22.788Z,4.40
2022-12-13T12:33:34.714Z,3.60
2022-12-13T12:36:11.998Z,4.10
2022-12-13T12:39:06.085Z,4.00
2022-12-13T12:42:00.550Z,3.90
2022-12-13T12:44:50.868Z,6.70
2022-12-13T12:48:08.914Z,4.50
2022-12-13T12:50:25.821Z,6.30
2022-12-13T12:53:12.137Z,4.60
2022-12-13T12:55:52.484Z,3.80
2022-12-13T12:58:30.706Z,4.80
2022-12-13T13:01:33.449Z,4.90
2022-12-13T13:04:12.315Z,4.80
2022-12-13T13:07:01.462Z,4.30
2022-12-13T13:09:31.505Z,4.60
2022-12-13T13:12:28.378Z,4.30
2022-12-13T13:14:55.410Z,5.80
2022-12-13T13:17:23.911Z,4.50
2022-12-13T13:20:23.402Z,4.40
2022-12-13T13:23:44.040Z,5.00
2022-12-13T13:26:16.318Z,7.40
2022-12-13T13:28:44.259Z,5.60
2022-12-13T13:31:12.944Z,6.50
2022-12-13T13:33:45.333Z,8.10
2022-12-13T13:36:45.141Z,9.60
2022-12-13T13:39:36.966Z,11.10
2022-12-13T13:42:14.707Z,10.60
2022-12-13T13:44:46.133Z,11.50
2022-12-13T13:47:20.768Z,11.50
2022-12-13T13:50:13.410Z,13.70
2022-12-13T13:52:44.661Z,22.40
2022-12-13T13:55:35.560Z,20.40
2022-12-13T13:58:25.345Z,12.80
2022-12-13T14:01:38.009Z,13.50
2022-12-13T14:04:37.921Z,22.50
2022-12-13T14:07:27.155Z,14.60
2022-12-13T14:10:17.203Z,10.90
2022-12-13T14:13:23.339Z,9.30
2022-12-13T14:16:12.137Z,10.80
2022-12-13T14:19:26.755Z,11.10
2022-12-13T14:22:40.595Z,10.80
2022-12-13T14:25:33.848Z,9.60
2022-12-13T14:28:27.322Z,8.50
2022-12-13T14:31:01.414Z,7.10
2022-12-13T14:33:30.317Z,12.30
2022-12-13T14:36:02.021Z,11.90
2022-12-13T14:38:32.546Z,11.40
2022-12-13T14:41:03.156Z,16.80
2022-12-13T14:43:34.300Z,17.00
2022-12-13T14:46:06.072Z,14.90
2022-12-13T14:48:42.950Z,18.30
2022-12-13T14:51:34.880Z,17.20
2022-12-13T14:54:06.838Z,15.00
2022-12-13T14:56:54.929Z,21.20
2022-12-13T14:59:23.895Z,16.30
2022-12-13T15:02:02.926Z,15.80
2022-12-13T15:04:37.971Z,17.10
2022-12-13T15:07:33.011Z,18.00
2022-12-13T15:10:18.442Z,21.30
2022-12-13T15:12:48.056Z,17.20
2022-12-13T15:15:43.081Z,19.40
2022-12-13T15:18:20.456Z,15.30
2022-12-13T15:20:55.391Z,21.10
2022-12-13T15:23:34.428Z,15.60
2022-12-13T15:26:29.405Z,23.10
2022-12-13T15:29:09.474Z,23.40
2022-12-13T15:31:40.847Z,27.90
2022-12-13T15:34:28.961Z,34.00
2022-12-13T15:37:28.248Z,36.40
2022-12-13T15:40:08.557Z,38.50
2022-12-13T15:42:43.696Z,31.90
2022-12-13T15:45:22.207Z,33.10
2022-12-13T15:47:52.324Z,31.70
2022-12-13T15:50:45.459Z,37.90
2022-12-13T15:53:29.168Z,36.70
2022-12-13T15:55:57.910Z,31.00
2022-12-13T15:58:35.315Z,38.60
2022-12-13T16:01:05.901Z,30.80
2022-12-13T16:03:43.871Z,39.00
2022-12-13T16:06:19.101Z,100.70
2022-12-13T16:08:51.457Z,81.10
2022-12-13T16:11:33.777Z,55.80
2022-12-13T16:14:26.748Z,38.30
2022-12-13T16:16:57.236Z,32.70
2022-12-13T16:19:26.366Z,21.90
2022-12-13T16:21:55.080Z,34.20
2022-12-13T16:24:23.543Z,56.20
2022-12-13T16:26:51.993Z,48.70
2022-12-13T16:29:20.825Z,50.90
2022-12-13T16:31:49.873Z,55.50
2022-12-13T16:34:19.924Z,33.60
2022-12-13T16:36:56.002Z,21.80
2022-12-13T16:39:25.461Z,21.20
2022-12-13T16:41:54.496Z,23.60
2022-12-13T16:44:43.258Z,26.10
2022-12-13T16:47:22.258Z,30.90
2022-12-13T16:49:55.912Z,30.10
2022-12-13T16:52:24.581Z,36.90
2022-12-13T16:54:53.051Z,24.30
2022-12-13T16:57:22.034Z,24.80
2022-12-13T16:59:51.265Z,27.00
2022-12-13T17:02:20.513Z,31.30
2022-12-13T17:04:49.267Z,37.80
2022-12-13T17:07:18.036Z,41.60
2022-12-13T17:09:47.246Z,35.00
2022-12-13T17:12:15.845Z,30.60
2022-12-13T17:14:44.520Z,37.90
2022-12-13T17:17:17.514Z,30.70
2022-12-13T17:19:47.897Z,26.40
2022-12-13T17:22:18.476Z,27.20
2022-12-13T17:24:47.254Z,30.00
2022-12-13T17:27:16.357Z,35.30
2022-12-13T17:29:45.247Z,34.20
2022-12-13T17:32:14.592Z,32.80
2022-12-13T17:34:43.367Z,31.30
2022-12-13T17:37:11.721Z,33.20
2022-12-13T17:39:40.316Z,35.50
2022-12-13T17:42:09.818Z,35.40
2022-12-13T17:44:39.215Z,34.50
2022-12-13T17:47:08.523Z,33.30
2022-12-13T17:49:37.296Z,33.10
2022-12-13T17:52:06.619Z,34.80
2022-12-13T17:54:35.498Z,33.70
2022-12-13T17:57:06.074Z,23.90
2022-12-13T17:59:39.729Z,34.00
2022-12-13T18:02:14.450Z,35.80
2022-12-13T18:07:28.253Z,34.60
2022-12-13T18:09:58.401Z,39.40
2022-12-13T18:12:27.582Z,49.00
2022-12-13T18:14:57.672Z,65.90
2022-12-13T18:17:46.730Z,48.10
2022-12-13T18:20:17.459Z,48.00
2022-12-13T18:22:51.190Z,53.50
2022-12-13T18:25:21.025Z,61.10
2022-12-13T18:27:53.838Z,58.00
2022-12-13T18:30:28.537Z,59.80
2022-12-13T18:32:57.733Z,54.00
2022-12-13T18:35:26.470Z,42.90
2022-12-13T18:37:55.710Z,77.50
2022-12-13T18:40:25.555Z,72.70
2022-12-13T18:42:55.179Z,89.10
2022-12-13T18:45:24.429Z,73.70
2022-12-13T18:47:52.887Z,58.20
2022-12-13T18:50:21.928Z,70.50
2022-12-13T18:52:50.939Z,35.30
2022-12-13T18:55:19.825Z,27.90
2022-12-13T18:57:51.366Z,23.50
2022-12-13T19:00:20.803Z,27.40
2022-12-13T19:02:49.757Z,18.80
2022-12-13T19:05:18.266Z,29.90
2022-12-13T19:07:47.261Z,34.90
2022-12-13T19:10:16.037Z,37.30
2022-12-13T19:12:44.771Z,42.10
2022-12-13T19:15:14.456Z,50.80
2022-12-13T19:17:43.867Z,46.40
2022-12-13T19:20:13.104Z,38.00
2022-12-13T19:22:41.843Z,35.90
2022-12-13T19:25:10.742Z,32.30
2022-12-13T19:27:39.739Z,24.60
2022-12-13T19:30:10.776Z,29.70
2022-12-13T19:32:39.886Z,25.30
2022-12-13T19:35:09.596Z,21.60
2022-12-13T19:37:38.780Z,18.30
2022-12-13T19:40:07.995Z,25.70
2022-12-13T19:42:37.635Z,27.20
2022-12-13T19:45:07.722Z,21.60
2022-12-13T19:47:36.717Z,25.70
2022-12-13T19:50:06.126Z,42.80
2022-12-13T19:52:34.699Z,40.40
2022-12-13T19:55:03.710Z,42.50
2022-12-13T19:57:33.627Z,50.40
2022-12-13T20:00:03.202Z,43.70
2022-12-13T20:02:35.362Z,36.20
2022-12-13T20:05:04.300Z,41.30
2022-12-13T20:07:32.883Z,46.40
2022-12-13T20:10:01.674Z,40.20
2022-12-13T20:12:31.416Z,47.80
2022-12-13T20:15:03.757Z,75.20
2022-12-13T20:17:32.975Z,77.10
2022-12-13T20:20:01.601Z,70.00
2022-12-13T20:22:30.327Z,59.60
2022-12-13T20:24:59.019Z,60.20
2022-12-13T20:27:27.939Z,49.50
2022-12-13T20:29:56.913Z,54.00
2022-12-13T20:32:25.699Z,75.30
2022-12-13T20:34:55.058Z,47.90
2022-12-13T20:37:28.093Z,56.90
2022-12-13T20:39:57.201Z,72.40
2022-12-13T20:42:25.991Z,120.40
2022-12-13T20:45:00.493Z,93.10
2022-12-13T20:47:33.797Z,91.60
2022-12-13T20:50:06.286Z,69.20
2022-12-13T20:52:35.385Z,74.70
2022-12-13T20:55:04.479Z,70.50
2022-12-13T20:57:33.486Z,63.70
2022-12-13T21:00:04.027Z,78.20
2022-12-13T21:02:33.215Z,88.90
2022-12-13T21:05:02.081Z,70.60
2022-12-13T21:07:49.031Z,104.70
2022-12-13T21:10:17.510Z,94.90
2022-12-13T21:12:46.094Z,81.50
2022-12-13T21:15:14.902Z,59.50
2022-12-13T21:17:43.907Z,55.70
2022-12-13T21:20:12.748Z,53.00
2022-12-13T21:22:41.705Z,49.70
2022-12-13T21:25:11.290Z,56.50
2022-12-13T21:27:43.159Z,50.10
2022-12-13T21:30:12.697Z,60.70
2022-12-13T21:32:41.666Z,60.30
2022-12-13T21:35:11.968Z,56.90
2022-12-13T21:37:40.969Z,62.40
2022-12-13T21:40:09.960Z,48.50
2022-12-13T21:42:38.449Z,64.40
2022-12-13T21:45:07.546Z,50.40
2022-12-13T21:47:36.020Z,51.80
2022-12-13T21:50:04.922Z,65.40
2022-12-13T21:52:36.287Z,55.60
2022-12-13T21:55:37.382Z,67.00
2022-12-13T21:58:13.560Z,63.30
2022-12-13T22:00:42.911Z,75.10
2022-12-13T22:03:12.632Z,54.70
2022-12-13T22:05:41.519Z,50.20
2022-12-13T22:08:11.329Z,51.10
2022-12-13T22:11:00.600Z,53.40
2022-12-13T22:13:29.346Z,55.80
2022-12-13T22:15:58.684Z,55.20
2022-12-13T22:18:28.459Z,49.60
2022-12-13T22:20:58.298Z,52.30
2022-12-13T22:23:30.265Z,45.00
2022-12-13T22:25:59.271Z,41.40
2022-12-13T22:28:29.600Z,44.20
2022-12-13T22:30:58.172Z,44.60
2022-12-13T22:33:27.372Z,48.30
2022-12-13T22:35:55.652Z,48.00
2022-12-13T22:38:24.450Z,52.00
2022-12-13T22:40:53.143Z,47.30
2022-12-13T22:43:21.534Z,45.90
2022-12-13T22:45:49.948Z,49.00
2022-12-13T22:48:19.298Z,44.50
2022-12-13T22:50:47.478Z,50.70
2022-12-13T22:53:15.877Z,47.40
2022-12-13T22:55:45.177Z,43.00
2022-12-13T22:58:16.201Z,43.70
2022-12-13T23:00:44.670Z,45.60
2022-12-13T23:03:13.203Z,37.00
2022-12-13T23:05:42.062Z,44.60
2022-12-13T23:08:10.656Z,40.20
2022-12-13T23:10:57.518Z,38.30
2022-12-13T23:13:25.845Z,45.60
2022-12-13T23:15:54.425Z,49.40
2022-12-13T23:18:22.817Z,43.50
2022-12-13T23:20:51.193Z,46.60
2022-12-13T23:23:19.887Z,48.20
2022-12-13T23:25:48.879Z,50.10
2022-12-13T23:28:17.573Z,50.90
2022-12-13T23:30:45.878Z,47.80
2022-12-13T23:33:14.125Z,48.60
2022-12-13T23:35:42.412Z,48.50
2022-12-13T23:38:10.497Z,50.60
2022-12-13T23:40:38.659Z,47.30
2022-12-13T23:43:06.836Z,47.50
2022-12-13T23:45:34.954Z,53.00
2022-12-13T23:48:03.288Z,50.30
2022-12-13T23:50:31.778Z,55.70
2022-12-13T23:52:59.943Z,57.60
2022-12-13T23:55:28.230Z,67.70
2022-12-13T23:57:56.511Z,62.60
